Time,TemperatureF,DewpointF,PressureIn,WindDirection,WindDirectionDegrees,WindSpeedMPH,WindSpeedGustMPH,Humidity,HourlyPrecipIn,Conditions,Clouds,dailyrainin,SoftwareType,DateUTC
2013-01-17 00:00:00,55.2,45.7,29.68,WNW,293,5.0,14.0,70,0.00,,,-99.99,meteohub,2013-01-16 23:00:00,
2013-01-17 00:15:00,55.0,45.7,29.67,WNW,293,5.0,11.0,70,0.00,,,0.00,meteohub,2013-01-16 23:15:00,
2013-01-17 00:31:00,55.6,45.5,29.67,WNW,293,8.0,18.0,69,0.00,,,0.00,meteohub,2013-01-16 23:31:00,
2013-01-17 00:46:00,55.9,45.7,29.68,WNW,293,7.0,16.0,68,0.00,,,0.00,meteohub,2013-01-16 23:46:00,
2013-01-17 01:02:00,55.9,45.7,29.67,WNW,293,5.0,13.0,68,0.00,,,0.00,meteohub,2013-01-17 00:02:00,
2013-01-17 01:17:00,55.9,45.5,29.67,NW,315,5.0,12.0,68,0.00,,,0.00,meteohub,2013-01-17 00:17:00,
2013-01-17 01:33:00,56.1,45.5,29.68,West,270,5.0,14.0,67,0.00,,,0.00,meteohub,2013-01-17 00:33:00,
2013-01-17 01:49:00,56.5,45.3,29.68,West,270,6.0,12.0,66,0.00,,,0.00,meteohub,2013-01-17 00:49:00,
2013-01-17 02:05:00,55.9,45.3,29.68,WNW,293,6.0,13.0,67,0.00,,,0.00,meteohub,2013-01-17 01:05:00,
2013-01-17 02:20:00,55.8,46.4,29.68,NNW,338,3.0,13.0,70,0.00,,,0.00,meteohub,2013-01-17 01:20:00,
2013-01-17 02:36:00,55.8,46.6,29.68,WNW,293,5.0,8.0,71,0.00,,,0.00,meteohub,2013-01-17 01:36:00,
2013-01-17 02:51:00,55.9,45.3,29.68,WSW,248,6.0,12.0,67,0.00,,,0.00,meteohub,2013-01-17 01:51:00,
2013-01-17 03:06:00,56.3,45.5,29.68,NW,315,9.0,10.0,67,0.00,,,0.00,meteohub,2013-01-17 02:06:00,
2013-01-17 03:21:00,56.1,45.9,29.68,WNW,293,6.0,13.0,68,0.00,,,0.00,meteohub,2013-01-17 02:21:00,
2013-01-17 03:37:00,55.9,46.2,29.68,NW,315,5.0,6.0,70,0.00,,,0.00,meteohub,2013-01-17 02:37:00,
2013-01-17 03:53:00,55.8,46.9,29.68,West,270,12.0,13.0,72,0.00,,,0.00,meteohub,2013-01-17 02:53:00,
2013-01-17 04:08:00,55.9,46.8,29.67,West,270,2.0,14.0,71,0.00,,,0.00,meteohub,2013-01-17 03:08:00,
2013-01-17 04:24:00,55.9,46.8,29.68,North,0,2.0,8.0,71,0.00,,,0.00,meteohub,2013-01-17 03:24:00,
2013-01-17 04:39:00,55.8,46.9,29.68,NW,315,6.0,9.0,72,0.00,,,0.00,meteohub,2013-01-17 03:39:00,
2013-01-17 04:54:00,55.9,45.3,29.68,NW,315,9.0,14.0,67,0.00,,,0.00,meteohub,2013-01-17 03:54:00,
2013-01-17 05:10:00,55.8,45.3,29.68,NW,315,8.0,9.0,67,0.00,,,0.00,meteohub,2013-01-17 04:10:00,
2013-01-17 05:25:00,55.4,45.3,29.69,NW,315,2.0,4.0,69,0.00,,,0.00,meteohub,2013-01-17 04:25:00,
2013-01-17 05:40:00,55.2,45.3,29.69,NNW,338,2.0,6.0,69,0.00,,,0.00,meteohub,2013-01-17 04:40:00,
2013-01-17 05:55:00,54.3,45.5,29.69,NNE,23,5.0,7.0,72,0.00,,,0.00,meteohub,2013-01-17 04:55:00,
2013-01-17 06:11:00,50.2,45.3,29.71,NE,45,6.0,10.0,83,0.00,,,0.00,meteohub,2013-01-17 05:11:00,
2013-01-17 06:26:00,48.9,45.1,29.71,NNE,23,5.0,10.0,86,0.00,,,0.00,meteohub,2013-01-17 05:26:00,
2013-01-17 06:41:00,48.0,44.6,29.72,ENE,68,4.0,11.0,88,0.00,,,0.00,meteohub,2013-01-17 05:41:00,
2013-01-17 06:56:00,47.7,44.2,29.73,NE,45,5.0,11.0,88,0.00,,,0.00,meteohub,2013-01-17 05:56:00,
2013-01-17 07:12:00,47.1,43.5,29.74,East,90,12.0,15.0,87,0.00,,,0.00,meteohub,2013-01-17 06:12:00,
2013-01-17 07:28:00,46.8,42.8,29.74,East,90,8.0,20.0,86,0.00,,,0.00,meteohub,2013-01-17 06:28:00,
2013-01-17 07:43:00,45.9,42.3,29.75,ENE,68,5.0,19.0,87,0.00,,,0.00,meteohub,2013-01-17 06:43:00,
2013-01-17 07:58:00,45.7,42.1,29.75,ENE,68,8.0,13.0,87,0.00,,,0.00,meteohub,2013-01-17 06:58:00,
2013-01-17 08:13:00,44.6,41.5,29.76,NE,45,6.0,13.0,89,0.00,,,0.00,meteohub,2013-01-17 07:13:00,
2013-01-17 08:29:00,44.4,41.4,29.77,East,90,4.0,13.0,89,0.00,,,0.00,meteohub,2013-01-17 07:29:00,
2013-01-17 08:45:00,44.4,41.7,29.78,ENE,68,4.0,12.0,89,0.00,,,0.00,meteohub,2013-01-17 07:45:00,
2013-01-17 09:00:00,44.4,41.7,29.79,NE,45,4.0,14.0,90,0.00,,,0.00,meteohub,2013-01-17 08:00:00,
2013-01-17 09:15:00,44.4,41.7,29.80,ENE,68,4.0,10.0,90,0.00,,,0.00,meteohub,2013-01-17 08:15:00,
2013-01-17 09:30:00,44.8,41.5,29.81,ENE,68,4.0,10.0,88,0.00,,,0.00,meteohub,2013-01-17 08:30:00,
2013-01-17 09:46:00,45.0,41.2,29.82,ENE,68,7.0,11.0,86,0.00,,,0.00,meteohub,2013-01-17 08:46:00,
2013-01-17 10:01:00,45.1,40.3,29.83,NE,45,6.0,12.0,83,0.00,,,0.00,meteohub,2013-01-17 09:01:00,
2013-01-17 10:16:00,45.1,39.9,29.83,NE,45,6.0,12.0,81,0.00,,,0.00,meteohub,2013-01-17 09:16:00,
2013-01-17 10:31:00,45.5,39.7,29.84,NE,45,8.0,12.0,80,0.00,,,0.00,meteohub,2013-01-17 09:31:00,
2013-01-17 10:47:00,45.7,39.6,29.84,NE,45,8.0,12.0,79,0.00,,,0.00,meteohub,2013-01-17 09:47:00,
2013-01-17 11:02:00,45.3,39.7,29.85,ENE,68,9.0,12.0,80,0.00,,,0.00,meteohub,2013-01-17 10:02:00,
2013-01-17 11:18:00,45.1,39.7,29.85,East,90,5.0,11.0,81,0.00,,,0.00,meteohub,2013-01-17 10:18:00,
2013-01-17 11:33:00,45.1,40.1,29.85,ENE,68,4.0,12.0,82,0.00,,,0.00,meteohub,2013-01-17 10:33:00,
2013-01-17 11:48:00,45.0,40.1,29.85,NE,45,5.0,10.0,83,0.00,,,0.00,meteohub,2013-01-17 10:48:00,
2013-01-17 12:04:00,45.0,39.7,29.85,East,90,5.0,10.0,82,0.00,,,0.00,meteohub,2013-01-17 11:04:00,
2013-01-17 12:19:00,45.0,40.1,29.84,ENE,68,4.0,8.0,83,0.00,,,0.00,meteohub,2013-01-17 11:19:00,
2013-01-17 12:34:00,45.3,39.2,29.85,ENE,68,6.0,10.0,79,0.00,,,0.00,meteohub,2013-01-17 11:34:00,
2013-01-17 12:49:00,45.3,38.8,29.85,ENE,68,5.0,10.0,78,0.00,,,0.00,meteohub,2013-01-17 11:49:00,
2013-01-17 13:05:00,45.7,38.8,29.84,NE,45,2.0,8.0,77,0.00,,,0.00,meteohub,2013-01-17 12:05:00,
2013-01-17 13:21:00,45.7,38.8,29.84,ENE,68,3.0,6.0,77,0.00,,,0.00,meteohub,2013-01-17 12:21:00,
2013-01-17 13:36:00,45.7,38.8,29.85,ENE,68,1.0,5.0,77,0.00,,,0.00,meteohub,2013-01-17 12:36:00,
2013-01-17 13:52:00,45.7,38.5,29.85,East,90,2.0,5.0,76,0.00,,,0.00,meteohub,2013-01-17 12:52:00,
2013-01-17 14:08:00,45.9,39.0,29.85,ENE,68,1.0,3.0,77,0.00,,,0.00,meteohub,2013-01-17 13:08:00,
2013-01-17 14:23:00,45.9,38.3,29.85,East,90,0.0,2.0,75,0.00,,,0.00,meteohub,2013-01-17 13:23:00,
2013-01-17 14:38:00,46.0,38.5,29.85,East,90,0.0,1.0,75,0.00,,,0.00,meteohub,2013-01-17 13:38:00,
2013-01-17 14:54:00,46.6,38.7,29.85,South,180,0.0,2.0,74,0.00,,,0.00,meteohub,2013-01-17 13:54:00,
2013-01-17 15:09:00,46.9,38.7,29.85,SE,135,2.0,4.0,73,0.00,,,0.00,meteohub,2013-01-17 14:09:00,
2013-01-17 15:25:00,47.8,38.8,29.85,SSW,203,4.0,6.0,71,0.00,,,0.00,meteohub,2013-01-17 14:25:00,
2013-01-17 15:40:00,47.8,38.5,29.85,South,180,4.0,6.0,70,0.00,,,0.00,meteohub,2013-01-17 14:40:00,
2013-01-17 15:56:00,48.6,39.2,29.85,South,180,2.0,3.0,70,0.00,,,0.00,meteohub,2013-01-17 14:56:00,
2013-01-17 16:11:00,49.5,40.1,29.85,SW,225,1.0,5.0,70,0.00,,,0.00,meteohub,2013-01-17 15:11:00,
2013-01-17 16:27:00,49.6,39.9,29.85,WSW,248,3.0,6.0,69,0.00,,,0.00,meteohub,2013-01-17 15:27:00,
2013-01-17 16:42:00,49.3,39.7,29.84,SW,225,3.0,7.0,69,0.00,,,0.00,meteohub,2013-01-17 15:42:00,
2013-01-17 16:57:00,49.3,40.3,29.84,SW,225,5.0,7.0,70,0.00,,,0.00,meteohub,2013-01-17 15:57:00,
2013-01-17 17:12:00,48.4,40.1,29.84,SW,225,3.0,7.0,73,0.00,,,0.00,meteohub,2013-01-17 16:12:00,
2013-01-17 17:28:00,47.5,40.1,29.84,WSW,248,5.0,9.0,75,0.00,,,0.00,meteohub,2013-01-17 16:28:00,
2013-01-17 17:43:00,46.8,40.3,29.84,WSW,248,3.0,6.0,78,0.00,,,0.00,meteohub,2013-01-17 16:43:00,
2013-01-17 17:58:00,46.4,39.9,29.84,WSW,248,2.0,4.0,78,0.00,,,0.00,meteohub,2013-01-17 16:58:00,
2013-01-17 18:14:00,45.7,39.9,29.85,NW,315,0.0,5.0,80,0.00,,,0.00,meteohub,2013-01-17 17:14:00,
2013-01-17 18:29:00,45.3,39.2,29.85,SSW,203,2.0,4.0,79,0.00,,,0.00,meteohub,2013-01-17 17:29:00,
2013-01-17 18:44:00,45.3,39.2,29.85,South,180,4.0,7.0,79,0.00,,,0.00,meteohub,2013-01-17 17:44:00,
2013-01-17 18:59:00,45.1,39.0,29.84,South,180,1.0,6.0,79,0.00,,,0.00,meteohub,2013-01-17 17:59:00,
2013-01-17 19:15:00,45.3,40.1,29.85,SSE,158,5.0,9.0,82,0.00,,,0.00,meteohub,2013-01-17 18:15:00,
2013-01-17 19:30:00,45.3,40.1,29.85,South,180,3.0,5.0,82,0.00,,,0.00,meteohub,2013-01-17 18:30:00,
2013-01-17 19:45:00,46.0,41.2,29.85,SSE,158,4.0,9.0,83,0.00,,,0.00,meteohub,2013-01-17 18:45:00,
2013-01-17 20:00:00,46.0,41.5,29.85,SE,135,5.0,8.0,84,0.00,,,0.00,meteohub,2013-01-17 19:00:00,
2013-01-17 20:16:00,47.7,41.5,29.84,SE,135,4.0,9.0,79,0.00,,,0.00,meteohub,2013-01-17 19:16:00,
2013-01-17 20:32:00,48.0,41.2,29.84,South,180,2.0,9.0,77,0.00,,,0.00,meteohub,2013-01-17 19:32:00,
2013-01-17 20:48:00,47.8,41.4,29.84,SSE,158,0.0,8.0,78,0.00,,,0.00,meteohub,2013-01-17 19:48:00,
2013-01-17 21:03:00,50.7,39.6,29.84,SSW,203,3.0,8.0,65,0.00,,,0.00,meteohub,2013-01-17 20:03:00,
2013-01-17 21:19:00,51.3,39.6,29.84,South,180,2.0,4.0,64,0.00,,,0.00,meteohub,2013-01-17 20:19:00,
2013-01-17 21:34:00,51.3,39.9,29.84,West,270,2.0,6.0,65,0.00,,,0.00,meteohub,2013-01-17 20:34:00,
2013-01-17 21:50:00,51.4,40.1,29.84,SSW,203,1.0,3.0,65,0.00,,,0.00,meteohub,2013-01-17 20:50:00,
2013-01-17 22:05:00,51.1,40.5,29.85,WNW,293,3.0,5.0,67,0.00,,,0.00,meteohub,2013-01-17 21:05:00,
2013-01-17 22:20:00,51.4,40.3,29.85,NW,315,1.0,2.0,65,0.00,,,0.00,meteohub,2013-01-17 21:20:00,
2013-01-17 22:36:00,51.4,40.1,29.84,SW,225,4.0,7.0,65,0.00,,,0.00,meteohub,2013-01-17 21:36:00,
2013-01-17 22:51:00,51.4,39.0,29.84,West,270,7.0,10.0,62,0.00,,,0.00,meteohub,2013-01-17 21:51:00,
2013-01-17 23:07:00,51.4,38.5,29.84,NW,315,3.0,8.0,61,0.00,,,0.00,meteohub,2013-01-17 22:07:00,
2013-01-17 23:22:00,51.3,39.4,29.84,SW,225,0.0,5.0,63,0.00,,,0.00,meteohub,2013-01-17 22:22:00,
2013-01-17 23:38:00,51.3,38.7,29.83,SSW,203,2.0,3.0,62,0.00,,,0.00,meteohub,2013-01-17 22:38:00,
2013-01-17 23:53:00,51.1,38.5,29.83,WNW,293,4.0,8.0,62,0.00,,,0.00,meteohub,2013-01-17 22:53:00,